sensor_id;sensor_type;location;lat;lon;timestamp;P1;durP1;ratioP1;P2;durP2;ratioP2
53939;SDS011;39850;43.324;21.916;2023-08-21T00:00:44;13.0;;;12.0;;
53939;SDS011;39850;43.324;21.916;2023-08-21T00:05:21;13.0;;;12.0;;
53939;SDS011;39850;43.324;21.916;2023-08-21T00:09:58;13.0;;;12.0;;
53939;SDS011;39850;43.324;21.916;2023-08-21T00:14:35;13.0;;;12.0;;
53939;SDS011;39850;43.324;21.916;2023-08-21T00:19:12;13.0;;;12.0;;
53939;SDS011;39850;43.324;21.916;2023-08-21T00:56:05;11.0;;;10.0;;
53939;SDS011;39850;43.324;21.916;2023-08-21T01:00:48;11.0;;;10.0;;
53939;SDS011;39850;43.324;21.916;2023-08-21T01:05:28;11.0;;;10.0;;
53939;SDS011;39850;43.324;21.916;2023-08-21T01:10:36;11.0;;;10.0;;
53939;SDS011;39850;43.324;21.916;2023-08-21T01:15:26;11.0;;;10.0;;
53939;SDS011;39850;43.324;21.916;2023-08-21T01:20:09;11.0;;;10.0;;
53939;SDS011;39850;43.324;21.916;2023-08-21T01:24:47;12.0;;;10.0;;
53939;SDS011;39850;43.324;21.916;2023-08-21T01:29:23;12.0;;;10.0;;
53939;SDS011;39850;43.324;21.916;2023-08-21T01:34:09;12.0;;;10.0;;
53939;SDS011;39850;43.324;21.916;2023-08-21T01:38:52;12.0;;;10.0;;
53939;SDS011;39850;43.324;21.916;2023-08-21T02:15:46;11.0;;;10.0;;
53939;SDS011;39850;43.324;21.916;2023-08-21T02:20:22;11.0;;;10.0;;
53939;SDS011;39850;43.324;21.916;2023-08-21T02:24:59;11.0;;;10.0;;
53939;SDS011;39850;43.324;21.916;2023-08-21T02:29:36;11.0;;;10.0;;
53939;SDS011;39850;43.324;21.916;2023-08-21T02:34:12;11.0;;;10.0;;
53939;SDS011;39850;43.324;21.916;2023-08-21T02:38:50;11.0;;;10.0;;
53939;SDS011;39850;43.324;21.916;2023-08-21T02:43:26;11.0;;;10.0;;
53939;SDS011;39850;43.324;21.916;2023-08-21T02:48:05;11.0;;;10.0;;
53939;SDS011;39850;43.324;21.916;2023-08-21T02:52:42;11.0;;;10.0;;
53939;SDS011;39850;43.324;21.916;2023-08-21T02:57:19;11.0;;;10.0;;
53939;SDS011;39850;43.324;21.916;2023-08-21T03:01:55;11.0;;;10.0;;
53939;SDS011;39850;43.324;21.916;2023-08-21T03:34:12;11.0;;;10.0;;
53939;SDS011;39850;43.324;21.916;2023-08-21T03:38:48;11.0;;;10.0;;
53939;SDS011;39850;43.324;21.916;2023-08-21T03:43:25;11.0;;;10.0;;
53939;SDS011;39850;43.324;21.916;2023-08-21T03:48:04;11.0;;;10.0;;
53939;SDS011;39850;43.324;21.916;2023-08-21T03:52:41;11.0;;;10.0;;
53939;SDS011;39850;43.324;21.916;2023-08-21T03:57:18;11.0;;;10.0;;
53939;SDS011;39850;43.324;21.916;2023-08-21T04:01:54;11.0;;;10.0;;
53939;SDS011;39850;43.324;21.916;2023-08-21T04:06:31;10.0;;;10.0;;
53939;SDS011;39850;43.324;21.916;2023-08-21T04:11:09;10.0;;;10.0;;
53939;SDS011;39850;43.324;21.916;2023-08-21T04:15:49;10.0;;;10.0;;
53939;SDS011;39850;43.324;21.916;2023-08-21T04:20:26;10.0;;;10.0;;
53939;SDS011;39850;43.324;21.916;2023-08-21T04:57:21;11.0;;;10.0;;
53939;SDS011;39850;43.324;21.916;2023-08-21T05:01:57;11.0;;;10.0;;
53939;SDS011;39850;43.324;21.916;2023-08-21T05:06:34;11.0;;;10.0;;
53939;SDS011;39850;43.324;21.916;2023-08-21T05:11:10;11.0;;;10.0;;
53939;SDS011;39850;43.324;21.916;2023-08-21T05:15:55;11.0;;;10.0;;
53939;SDS011;39850;43.324;21.916;2023-08-21T05:20:32;11.0;;;10.0;;
53939;SDS011;39850;43.324;21.916;2023-08-21T05:25:11;11.0;;;10.0;;
53939;SDS011;39850;43.324;21.916;2023-08-21T05:29:48;11.0;;;10.0;;
53939;SDS011;39850;43.324;21.916;2023-08-21T05:34:25;11.0;;;10.0;;
53939;SDS011;39850;43.324;21.916;2023-08-21T05:39:05;11.0;;;10.0;;
53939;SDS011;39850;43.324;21.916;2023-08-21T05:43:44;11.0;;;10.0;;
53939;SDS011;39850;43.324;21.916;2023-08-21T06:16:04;11.0;;;11.0;;
53939;SDS011;39850;43.324;21.916;2023-08-21T06:20:43;11.0;;;11.0;;
53939;SDS011;39850;43.324;21.916;2023-08-21T06:25:20;12.0;;;11.0;;
53939;SDS011;39850;43.324;21.916;2023-08-21T06:29:57;12.0;;;11.0;;
53939;SDS011;39850;43.324;21.916;2023-08-21T06:34:34;12.0;;;11.0;;
53939;SDS011;39850;43.324;21.916;2023-08-21T06:39:10;12.0;;;11.0;;
53939;SDS011;39850;43.324;21.916;2023-08-21T06:43:47;12.0;;;11.0;;
53939;SDS011;39850;43.324;21.916;2023-08-21T06:48:24;12.0;;;11.0;;
53939;SDS011;39850;43.324;21.916;2023-08-21T06:53:01;12.0;;;11.0;;
53939;SDS011;39850;43.324;21.916;2023-08-21T06:57:38;12.0;;;11.0;;
53939;SDS011;39850;43.324;21.916;2023-08-21T07:02:15;12.0;;;11.0;;
53939;SDS011;39850;43.324;21.916;2023-08-21T07:34:32;12.0;;;11.0;;
53939;SDS011;39850;43.324;21.916;2023-08-21T07:39:08;12.0;;;11.0;;
53939;SDS011;39850;43.324;21.916;2023-08-21T07:43:45;12.0;;;11.0;;
53939;SDS011;39850;43.324;21.916;2023-08-21T07:48:21;12.0;;;10.0;;
53939;SDS011;39850;43.324;21.916;2023-08-21T07:52:58;12.0;;;10.0;;
53939;SDS011;39850;43.324;21.916;2023-08-21T07:57:35;12.0;;;11.0;;
53939;SDS011;39850;43.324;21.916;2023-08-21T08:02:11;12.0;;;11.0;;
53939;SDS011;39850;43.324;21.916;2023-08-21T08:06:48;12.0;;;10.0;;
53939;SDS011;39850;43.324;21.916;2023-08-21T08:11:26;12.0;;;10.0;;
53939;SDS011;39850;43.324;21.916;2023-08-21T08:16:03;12.0;;;11.0;;
53939;SDS011;39850;43.324;21.916;2023-08-21T08:20:41;12.0;;;11.0;;
53939;SDS011;39850;43.324;21.916;2023-08-21T08:57:40;14.0;;;13.0;;
53939;SDS011;39850;43.324;21.916;2023-08-21T09:02:17;14.0;;;13.0;;
53939;SDS011;39850;43.324;21.916;2023-08-21T09:07:08;14.0;;;12.0;;
53939;SDS011;39850;43.324;21.916;2023-08-21T09:11:48;14.0;;;12.0;;
53939;SDS011;39850;43.324;21.916;2023-08-21T09:16:26;13.0;;;12.0;;
53939;SDS011;39850;43.324;21.916;2023-08-21T09:21:05;13.0;;;12.0;;
53939;SDS011;39850;43.324;21.916;2023-08-21T09:25:48;13.0;;;12.0;;
53939;SDS011;39850;43.324;21.916;2023-08-21T09:30:25;13.0;;;12.0;;
53939;SDS011;39850;43.324;21.916;2023-08-21T09:35:05;13.0;;;12.0;;
53939;SDS011;39850;43.324;21.916;2023-08-21T09:39:42;13.0;;;12.0;;
53939;SDS011;39850;43.324;21.916;2023-08-21T09:44:19;13.0;;;12.0;;
53939;SDS011;39850;43.324;21.916;2023-08-21T10:17:08;12.0;;;12.0;;
53939;SDS011;39850;43.324;21.916;2023-08-21T10:21:49;12.0;;;12.0;;
53939;SDS011;39850;43.324;21.916;2023-08-21T10:26:27;14.0;;;13.0;;
53939;SDS011;39850;43.324;21.916;2023-08-21T10:31:34;14.0;;;13.0;;
53939;SDS011;39850;43.324;21.916;2023-08-21T10:36:11;15.0;;;14.0;;
53939;SDS011;39850;43.324;21.916;2023-08-21T10:41:08;15.0;;;14.0;;
53939;SDS011;39850;43.324;21.916;2023-08-21T10:45:55;15.0;;;14.0;;
53939;SDS011;39850;43.324;21.916;2023-08-21T10:50:32;15.0;;;14.0;;
53939;SDS011;39850;43.324;21.916;2023-08-21T10:55:15;15.0;;;15.0;;
53939;SDS011;39850;43.324;21.916;2023-08-21T11:00:01;15.0;;;15.0;;
53939;SDS011;39850;43.324;21.916;2023-08-21T11:04:41;15.0;;;15.0;;
53939;SDS011;39850;43.324;21.916;2023-08-21T11:37:06;15.0;;;15.0;;
53939;SDS011;39850;43.324;21.916;2023-08-21T11:41:59;15.0;;;15.0;;
53939;SDS011;39850;43.324;21.916;2023-08-21T11:46:36;16.0;;;16.0;;
53939;SDS011;39850;43.324;21.916;2023-08-21T11:51:13;16.0;;;16.0;;
53939;SDS011;39850;43.324;21.916;2023-08-21T11:55:51;15.0;;;15.0;;
53939;SDS011;39850;43.324;21.916;2023-08-21T12:00:30;15.0;;;15.0;;
53939;SDS011;39850;43.324;21.916;2023-08-21T12:05:15;14.0;;;14.0;;
53939;SDS011;39850;43.324;21.916;2023-08-21T12:09:52;14.0;;;14.0;;
53939;SDS011;39850;43.324;21.916;2023-08-21T12:14:29;14.0;;;14.0;;
53939;SDS011;39850;43.324;21.916;2023-08-21T12:19:06;13.0;;;12.0;;
53939;SDS011;39850;43.324;21.916;2023-08-21T12:23:43;13.0;;;12.0;;
53939;SDS011;39850;43.324;21.916;2023-08-21T12:55:59;14.0;;;14.0;;
53939;SDS011;39850;43.324;21.916;2023-08-21T13:00:36;14.0;;;14.0;;
53939;SDS011;39850;43.324;21.916;2023-08-21T13:05:13;14.0;;;14.0;;
53939;SDS011;39850;43.324;21.916;2023-08-21T13:09:50;14.0;;;14.0;;
53939;SDS011;39850;43.324;21.916;2023-08-21T13:14:26;14.0;;;14.0;;
53939;SDS011;39850;43.324;21.916;2023-08-21T13:19:03;14.0;;;14.0;;
53939;SDS011;39850;43.324;21.916;2023-08-21T13:23:39;14.0;;;14.0;;
53939;SDS011;39850;43.324;21.916;2023-08-21T13:28:16;14.0;;;14.0;;
53939;SDS011;39850;43.324;21.916;2023-08-21T13:32:54;14.0;;;14.0;;
53939;SDS011;39850;43.324;21.916;2023-08-21T13:37:31;13.0;;;13.0;;
53939;SDS011;39850;43.324;21.916;2023-08-21T13:42:08;13.0;;;13.0;;
53939;SDS011;39850;43.324;21.916;2023-08-21T14:19:01;14.0;;;12.0;;
53939;SDS011;39850;43.324;21.916;2023-08-21T14:23:37;14.0;;;12.0;;
53939;SDS011;39850;43.324;21.916;2023-08-21T14:28:14;14.0;;;12.0;;
53939;SDS011;39850;43.324;21.916;2023-08-21T14:32:51;14.0;;;12.0;;
53939;SDS011;39850;43.324;21.916;2023-08-21T14:37:28;14.0;;;12.0;;
53939;SDS011;39850;43.324;21.916;2023-08-21T14:42:06;14.0;;;12.0;;
53939;SDS011;39850;43.324;21.916;2023-08-21T14:46:43;14.0;;;13.0;;
53939;SDS011;39850;43.324;21.916;2023-08-21T14:51:19;14.0;;;13.0;;
53939;SDS011;39850;43.324;21.916;2023-08-21T14:55:57;14.0;;;14.0;;
53939;SDS011;39850;43.324;21.916;2023-08-21T15:00:33;14.0;;;14.0;;
53939;SDS011;39850;43.324;21.916;2023-08-21T15:05:10;14.0;;;14.0;;
53939;SDS011;39850;43.324;21.916;2023-08-21T15:37:26;21.0;;;23.0;;
53939;SDS011;39850;43.324;21.916;2023-08-21T15:42:03;21.0;;;23.0;;
53939;SDS011;39850;43.324;21.916;2023-08-21T15:46:40;21.0;;;23.0;;
53939;SDS011;39850;43.324;21.916;2023-08-21T15:51:16;21.0;;;23.0;;
53939;SDS011;39850;43.324;21.916;2023-08-21T15:55:53;21.0;;;23.0;;
53939;SDS011;39850;43.324;21.916;2023-08-21T16:00:29;20.0;;;20.0;;
53939;SDS011;39850;43.324;21.916;2023-08-21T16:05:08;20.0;;;20.0;;
53939;SDS011;39850;43.324;21.916;2023-08-21T16:09:45;18.0;;;18.0;;
53939;SDS011;39850;43.324;21.916;2023-08-21T16:14:22;18.0;;;18.0;;
53939;SDS011;39850;43.324;21.916;2023-08-21T16:18:59;18.0;;;18.0;;
53939;SDS011;39850;43.324;21.916;2023-08-21T16:23:36;18.0;;;18.0;;
53939;SDS011;39850;43.324;21.916;2023-08-21T17:00:29;12.0;;;12.0;;
53939;SDS011;39850;43.324;21.916;2023-08-21T17:05:08;12.0;;;12.0;;
53939;SDS011;39850;43.324;21.916;2023-08-21T17:09:49;12.0;;;12.0;;
53939;SDS011;39850;43.324;21.916;2023-08-21T17:14:25;12.0;;;12.0;;
53939;SDS011;39850;43.324;21.916;2023-08-21T17:19:02;13.0;;;12.0;;
53939;SDS011;39850;43.324;21.916;2023-08-21T17:23:39;13.0;;;12.0;;
53939;SDS011;39850;43.324;21.916;2023-08-21T17:28:16;14.0;;;12.0;;
53939;SDS011;39850;43.324;21.916;2023-08-21T17:32:53;14.0;;;12.0;;
53939;SDS011;39850;43.324;21.916;2023-08-21T17:37:30;14.0;;;12.0;;
53939;SDS011;39850;43.324;21.916;2023-08-21T17:42:07;14.0;;;12.0;;
53939;SDS011;39850;43.324;21.916;2023-08-21T18:19:00;13.0;;;13.0;;
53939;SDS011;39850;43.324;21.916;2023-08-21T18:23:38;13.0;;;13.0;;
53939;SDS011;39850;43.324;21.916;2023-08-21T18:28:15;14.0;;;14.0;;
53939;SDS011;39850;43.324;21.916;2023-08-21T18:32:52;14.0;;;14.0;;
53939;SDS011;39850;43.324;21.916;2023-08-21T18:37:28;14.0;;;14.0;;
53939;SDS011;39850;43.324;21.916;2023-08-21T18:42:06;14.0;;;14.0;;
53939;SDS011;39850;43.324;21.916;2023-08-21T18:46:43;15.0;;;14.0;;
53939;SDS011;39850;43.324;21.916;2023-08-21T18:51:20;15.0;;;14.0;;
53939;SDS011;39850;43.324;21.916;2023-08-21T18:55:56;15.0;;;14.0;;
53939;SDS011;39850;43.324;21.916;2023-08-21T19:00:34;14.0;;;14.0;;
53939;SDS011;39850;43.324;21.916;2023-08-21T19:05:11;14.0;;;14.0;;
53939;SDS011;39850;43.324;21.916;2023-08-21T19:37:28;14.0;;;14.0;;
53939;SDS011;39850;43.324;21.916;2023-08-21T19:42:06;14.0;;;14.0;;
53939;SDS011;39850;43.324;21.916;2023-08-21T19:46:43;16.0;;;16.0;;
53939;SDS011;39850;43.324;21.916;2023-08-21T19:51:20;16.0;;;16.0;;
53939;SDS011;39850;43.324;21.916;2023-08-21T19:55:57;16.0;;;16.0;;
53939;SDS011;39850;43.324;21.916;2023-08-21T20:00:34;16.0;;;16.0;;
53939;SDS011;39850;43.324;21.916;2023-08-21T20:05:10;16.0;;;16.0;;
53939;SDS011;39850;43.324;21.916;2023-08-21T20:09:47;17.0;;;17.0;;
53939;SDS011;39850;43.324;21.916;2023-08-21T20:14:24;17.0;;;17.0;;
53939;SDS011;39850;43.324;21.916;2023-08-21T20:19:01;16.0;;;16.0;;
53939;SDS011;39850;43.324;21.916;2023-08-21T20:23:37;16.0;;;16.0;;
53939;SDS011;39850;43.324;21.916;2023-08-21T21:00:34;15.0;;;16.0;;
53939;SDS011;39850;43.324;21.916;2023-08-21T21:05:11;15.0;;;16.0;;
53939;SDS011;39850;43.324;21.916;2023-08-21T21:09:47;16.0;;;16.0;;
53939;SDS011;39850;43.324;21.916;2023-08-21T21:14:25;16.0;;;16.0;;
53939;SDS011;39850;43.324;21.916;2023-08-21T21:19:02;16.0;;;16.0;;
53939;SDS011;39850;43.324;21.916;2023-08-21T21:23:39;16.0;;;16.0;;
53939;SDS011;39850;43.324;21.916;2023-08-21T21:28:15;16.0;;;16.0;;
53939;SDS011;39850;43.324;21.916;2023-08-21T21:32:52;16.0;;;16.0;;
53939;SDS011;39850;43.324;21.916;2023-08-21T21:37:29;16.0;;;16.0;;
53939;SDS011;39850;43.324;21.916;2023-08-21T21:42:07;16.0;;;16.0;;
53939;SDS011;39850;43.324;21.916;2023-08-21T21:46:44;16.0;;;16.0;;
53939;SDS011;39850;43.324;21.916;2023-08-21T22:19:01;17.0;;;18.0;;
53939;SDS011;39850;43.324;21.916;2023-08-21T22:23:37;17.0;;;18.0;;
53939;SDS011;39850;43.324;21.916;2023-08-21T22:28:14;16.0;;;16.0;;
53939;SDS011;39850;43.324;21.916;2023-08-21T22:32:51;16.0;;;16.0;;
53939;SDS011;39850;43.324;21.916;2023-08-21T22:37:31;15.0;;;15.0;;
53939;SDS011;39850;43.324;21.916;2023-08-21T22:42:08;15.0;;;15.0;;
53939;SDS011;39850;43.324;21.916;2023-08-21T22:46:45;15.0;;;15.0;;
53939;SDS011;39850;43.324;21.916;2023-08-21T22:51:22;14.0;;;14.0;;
53939;SDS011;39850;43.324;21.916;2023-08-21T22:56:01;14.0;;;14.0;;
53939;SDS011;39850;43.324;21.916;2023-08-21T23:00:37;14.0;;;14.0;;
53939;SDS011;39850;43.324;21.916;2023-08-21T23:05:14;14.0;;;14.0;;
53939;SDS011;39850;43.324;21.916;2023-08-21T23:37:34;19.0;;;19.0;;
53939;SDS011;39850;43.324;21.916;2023-08-21T23:42:10;19.0;;;19.0;;
53939;SDS011;39850;43.324;21.916;2023-08-21T23:46:47;19.0;;;19.0;;
53939;SDS011;39850;43.324;21.916;2023-08-21T23:51:24;18.0;;;18.0;;
53939;SDS011;39850;43.324;21.916;2023-08-21T23:56:01;18.0;;;18.0;;
